Nabq, Egypt
Current Conditions -  °F | °C
As of 8:00 PM on Wednesday 28 Jan 2015 (Local Time) from HESH Reporting Station
Scattered Clouds Scattered Clouds  
Wind Chill: 72°   Ceiling: Unl
Heat Index: 72°   Visibility: 6mi
Dew Point: 59°   Wind: 18mph
Humidity: 64%   Direction: 360°N
Pressure: 29.88"   Gusts: NA
Location:  28.07°N, 34.42°E
Report Text: HESH 281800Z 36016KT 9999 FEW030 SCT100 22/15 Q1012 NOSIG
Loading
Personal Weather Stations






























Interactive Weather Map New forecast layout! Learn more

10-Day Weather Forecast

Advertisements
Track Severe Weather on mobile